sensor_id;sensor_type;location;lat;lon;timestamp;P1;durP1;ratioP1;P2;durP2;ratioP2
43706;SDS011;61348;53.392;-6.248;2023-01-25T00:00:03;10.38;;;7.47;;
43706;SDS011;61348;53.392;-6.248;2023-01-25T00:02:32;13.00;;;8.40;;
43706;SDS011;61348;53.392;-6.248;2023-01-25T00:04:58;13.43;;;7.95;;
43706;SDS011;61348;53.392;-6.248;2023-01-25T00:07:25;10.65;;;7.43;;
43706;SDS011;61348;53.392;-6.248;2023-01-25T00:09:52;11.00;;;7.38;;
43706;SDS011;61348;53.392;-6.248;2023-01-25T00:12:19;12.25;;;7.75;;
43706;SDS011;61348;53.392;-6.248;2023-01-25T00:14:45;10.07;;;7.20;;
43706;SDS011;61348;53.392;-6.248;2023-01-25T00:17:12;10.50;;;6.43;;
43706;SDS011;61348;53.392;-6.248;2023-01-25T00:19:38;13.13;;;7.18;;
43706;SDS011;61348;53.392;-6.248;2023-01-25T00:22:05;13.60;;;7.47;;
43706;SDS011;61348;53.392;-6.248;2023-01-25T00:24:32;12.32;;;7.53;;
43706;SDS011;61348;53.392;-6.248;2023-01-25T00:26:59;9.15;;;5.93;;
43706;SDS011;61348;53.392;-6.248;2023-01-25T00:29:25;23.02;;;9.23;;
43706;SDS011;61348;53.392;-6.248;2023-01-25T00:39:17;9.25;;;5.50;;
43706;SDS011;61348;53.392;-6.248;2023-01-25T00:41:44;8.13;;;5.68;;
43706;SDS011;61348;53.392;-6.248;2023-01-25T00:44:11;8.88;;;5.93;;
43706;SDS011;61348;53.392;-6.248;2023-01-25T00:46:38;8.25;;;6.22;;
43706;SDS011;61348;53.392;-6.248;2023-01-25T00:49:05;10.00;;;7.22;;
43706;SDS011;61348;53.392;-6.248;2023-01-25T00:51:32;8.30;;;6.10;;
43706;SDS011;61348;53.392;-6.248;2023-01-25T00:53:59;8.57;;;5.88;;
43706;SDS011;61348;53.392;-6.248;2023-01-25T00:56:25;9.07;;;5.95;;
43706;SDS011;61348;53.392;-6.248;2023-01-25T00:58:52;8.23;;;5.80;;
43706;SDS011;61348;53.392;-6.248;2023-01-25T01:01:19;12.10;;;6.03;;
43706;SDS011;61348;53.392;-6.248;2023-01-25T01:03:46;8.02;;;6.28;;
43706;SDS011;61348;53.392;-6.248;2023-01-25T01:06:12;10.80;;;7.40;;
43706;SDS011;61348;53.392;-6.248;2023-01-25T01:08:40;9.93;;;6.60;;
43706;SDS011;61348;53.392;-6.248;2023-01-25T01:11:09;9.45;;;6.65;;
43706;SDS011;61348;53.392;-6.248;2023-01-25T01:13:37;9.35;;;6.45;;
43706;SDS011;61348;53.392;-6.248;2023-01-25T01:16:05;12.25;;;7.13;;
43706;SDS011;61348;53.392;-6.248;2023-01-25T01:18:41;12.65;;;7.93;;
43706;SDS011;61348;53.392;-6.248;2023-01-25T01:21:09;10.68;;;7.55;;
43706;SDS011;61348;53.392;-6.248;2023-01-25T01:23:37;9.23;;;7.55;;
43706;SDS011;61348;53.392;-6.248;2023-01-25T01:26:06;13.13;;;7.20;;
43706;SDS011;61348;53.392;-6.248;2023-01-25T01:28:36;12.90;;;8.68;;
43706;SDS011;61348;53.392;-6.248;2023-01-25T01:31:06;12.43;;;8.27;;
43706;SDS011;61348;53.392;-6.248;2023-01-25T01:33:36;11.32;;;7.80;;
43706;SDS011;61348;53.392;-6.248;2023-01-25T01:36:10;16.38;;;8.93;;
43706;SDS011;61348;53.392;-6.248;2023-01-25T01:38:41;12.93;;;8.88;;
43706;SDS011;61348;53.392;-6.248;2023-01-25T01:41:09;14.63;;;9.52;;
43706;SDS011;61348;53.392;-6.248;2023-01-25T01:43:37;16.75;;;9.70;;
43706;SDS011;61348;53.392;-6.248;2023-01-25T01:46:50;15.85;;;9.40;;
43706;SDS011;61348;53.392;-6.248;2023-01-25T01:49:32;14.05;;;8.48;;
43706;SDS011;61348;53.392;-6.248;2023-01-25T01:54:35;18.63;;;10.18;;
43706;SDS011;61348;53.392;-6.248;2023-01-25T01:59:37;17.63;;;10.85;;
43706;SDS011;61348;53.392;-6.248;2023-01-25T02:02:10;15.88;;;10.15;;
43706;SDS011;61348;53.392;-6.248;2023-01-25T02:04:38;14.80;;;9.93;;
43706;SDS011;61348;53.392;-6.248;2023-01-25T02:07:10;15.70;;;9.98;;
43706;SDS011;61348;53.392;-6.248;2023-01-25T02:09:42;19.98;;;11.18;;
43706;SDS011;61348;53.392;-6.248;2023-01-25T02:12:09;15.77;;;9.70;;
43706;SDS011;61348;53.392;-6.248;2023-01-25T02:14:39;15.80;;;10.50;;
43706;SDS011;61348;53.392;-6.248;2023-01-25T02:17:13;15.88;;;9.00;;
43706;SDS011;61348;53.392;-6.248;2023-01-25T02:19:55;16.27;;;10.15;;
43706;SDS011;61348;53.392;-6.248;2023-01-25T02:22:42;15.00;;;9.73;;
43706;SDS011;61348;53.392;-6.248;2023-01-25T02:25:10;16.17;;;9.18;;
43706;SDS011;61348;53.392;-6.248;2023-01-25T02:27:40;17.50;;;9.98;;
43706;SDS011;61348;53.392;-6.248;2023-01-25T02:30:11;17.27;;;9.93;;
43706;SDS011;61348;53.392;-6.248;2023-01-25T02:32:38;14.63;;;8.25;;
43706;SDS011;61348;53.392;-6.248;2023-01-25T02:35:04;13.95;;;9.30;;
43706;SDS011;61348;53.392;-6.248;2023-01-25T02:37:32;14.45;;;8.48;;
43706;SDS011;61348;53.392;-6.248;2023-01-25T02:39:59;11.73;;;7.35;;
43706;SDS011;61348;53.392;-6.248;2023-01-25T02:42:29;12.82;;;8.68;;
43706;SDS011;61348;53.392;-6.248;2023-01-25T02:44:57;15.43;;;8.80;;
43706;SDS011;61348;53.392;-6.248;2023-01-25T02:47:24;12.18;;;8.35;;
43706;SDS011;61348;53.392;-6.248;2023-01-25T02:49:50;13.88;;;8.05;;
43706;SDS011;61348;53.392;-6.248;2023-01-25T02:52:17;14.93;;;8.30;;
43706;SDS011;61348;53.392;-6.248;2023-01-25T02:54:44;12.73;;;8.50;;
43706;SDS011;61348;53.392;-6.248;2023-01-25T02:57:11;13.65;;;8.70;;
43706;SDS011;61348;53.392;-6.248;2023-01-25T02:59:37;11.27;;;7.10;;
43706;SDS011;61348;53.392;-6.248;2023-01-25T03:02:04;13.50;;;8.95;;
43706;SDS011;61348;53.392;-6.248;2023-01-25T03:04:31;12.43;;;8.07;;
43706;SDS011;61348;53.392;-6.248;2023-01-25T03:06:57;15.18;;;8.95;;
43706;SDS011;61348;53.392;-6.248;2023-01-25T03:09:24;11.75;;;7.55;;
43706;SDS011;61348;53.392;-6.248;2023-01-25T03:11:51;13.35;;;8.55;;
43706;SDS011;61348;53.392;-6.248;2023-01-25T03:14:19;13.40;;;7.78;;
43706;SDS011;61348;53.392;-6.248;2023-01-25T03:16:45;14.93;;;8.85;;
43706;SDS011;61348;53.392;-6.248;2023-01-25T03:19:12;15.27;;;8.65;;
43706;SDS011;61348;53.392;-6.248;2023-01-25T03:21:39;15.48;;;8.80;;
43706;SDS011;61348;53.392;-6.248;2023-01-25T03:24:07;12.35;;;7.63;;
43706;SDS011;61348;53.392;-6.248;2023-01-25T03:26:35;14.75;;;7.25;;
43706;SDS011;61348;53.392;-6.248;2023-01-25T03:29:22;13.98;;;8.18;;
43706;SDS011;61348;53.392;-6.248;2023-01-25T03:31:49;13.35;;;7.25;;
43706;SDS011;61348;53.392;-6.248;2023-01-25T03:34:15;11.55;;;7.25;;
43706;SDS011;61348;53.392;-6.248;2023-01-25T03:36:42;15.48;;;8.27;;
43706;SDS011;61348;53.392;-6.248;2023-01-25T03:39:09;10.45;;;6.90;;
43706;SDS011;61348;53.392;-6.248;2023-01-25T03:41:35;11.98;;;8.68;;
43706;SDS011;61348;53.392;-6.248;2023-01-25T03:44:02;11.00;;;7.05;;
43706;SDS011;61348;53.392;-6.248;2023-01-25T03:46:29;12.38;;;6.57;;
43706;SDS011;61348;53.392;-6.248;2023-01-25T03:48:55;9.45;;;6.57;;
43706;SDS011;61348;53.392;-6.248;2023-01-25T03:51:22;9.65;;;6.53;;
43706;SDS011;61348;53.392;-6.248;2023-01-25T03:53:49;14.23;;;7.75;;
43706;SDS011;61348;53.392;-6.248;2023-01-25T03:56:15;12.82;;;7.80;;
43706;SDS011;61348;53.392;-6.248;2023-01-25T03:58:45;11.80;;;6.97;;
43706;SDS011;61348;53.392;-6.248;2023-01-25T04:01:12;14.60;;;7.78;;
43706;SDS011;61348;53.392;-6.248;2023-01-25T04:03:39;11.68;;;6.70;;
43706;SDS011;61348;53.392;-6.248;2023-01-25T04:06:06;11.50;;;6.53;;
43706;SDS011;61348;53.392;-6.248;2023-01-25T04:08:34;11.57;;;6.78;;
43706;SDS011;61348;53.392;-6.248;2023-01-25T04:11:05;12.05;;;6.53;;
43706;SDS011;61348;53.392;-6.248;2023-01-25T04:13:34;13.43;;;7.20;;
43706;SDS011;61348;53.392;-6.248;2023-01-25T04:16:05;13.65;;;7.30;;
43706;SDS011;61348;53.392;-6.248;2023-01-25T04:18:33;12.55;;;7.03;;
43706;SDS011;61348;53.392;-6.248;2023-01-25T04:21:00;11.38;;;7.43;;
43706;SDS011;61348;53.392;-6.248;2023-01-25T04:23:26;12.55;;;7.88;;
43706;SDS011;61348;53.392;-6.248;2023-01-25T04:28:21;14.48;;;8.20;;
43706;SDS011;61348;53.392;-6.248;2023-01-25T04:30:48;16.35;;;8.82;;
43706;SDS011;61348;53.392;-6.248;2023-01-25T04:33:15;18.48;;;7.75;;
43706;SDS011;61348;53.392;-6.248;2023-01-25T04:35:42;14.60;;;8.88;;
43706;SDS011;61348;53.392;-6.248;2023-01-25T04:38:09;14.05;;;7.93;;
43706;SDS011;61348;53.392;-6.248;2023-01-25T04:40:36;15.65;;;8.35;;
43706;SDS011;61348;53.392;-6.248;2023-01-25T04:43:03;14.07;;;8.27;;
43706;SDS011;61348;53.392;-6.248;2023-01-25T04:45:32;14.00;;;8.82;;
43706;SDS011;61348;53.392;-6.248;2023-01-25T04:48:00;11.50;;;7.25;;
43706;SDS011;61348;53.392;-6.248;2023-01-25T04:50:29;16.63;;;8.00;;
43706;SDS011;61348;53.392;-6.248;2023-01-25T04:52:57;11.60;;;7.35;;
43706;SDS011;61348;53.392;-6.248;2023-01-25T04:55:23;17.55;;;8.00;;
43706;SDS011;61348;53.392;-6.248;2023-01-25T04:57:50;13.13;;;7.88;;
43706;SDS011;61348;53.392;-6.248;2023-01-25T05:00:17;14.57;;;8.68;;
43706;SDS011;61348;53.392;-6.248;2023-01-25T05:02:44;15.82;;;8.10;;
43706;SDS011;61348;53.392;-6.248;2023-01-25T05:05:12;15.07;;;8.15;;
43706;SDS011;61348;53.392;-6.248;2023-01-25T05:07:39;15.48;;;8.98;;
43706;SDS011;61348;53.392;-6.248;2023-01-25T05:10:06;11.77;;;7.57;;
43706;SDS011;61348;53.392;-6.248;2023-01-25T05:12:33;14.35;;;8.10;;
43706;SDS011;61348;53.392;-6.248;2023-01-25T05:15:00;13.32;;;8.27;;
43706;SDS011;61348;53.392;-6.248;2023-01-25T05:17:27;12.02;;;7.80;;
43706;SDS011;61348;53.392;-6.248;2023-01-25T05:19:54;15.15;;;8.25;;
43706;SDS011;61348;53.392;-6.248;2023-01-25T05:22:21;15.75;;;7.65;;
43706;SDS011;61348;53.392;-6.248;2023-01-25T05:24:47;13.70;;;8.55;;
43706;SDS011;61348;53.392;-6.248;2023-01-25T05:27:16;14.90;;;8.45;;
43706;SDS011;61348;53.392;-6.248;2023-01-25T05:29:44;15.70;;;8.27;;
43706;SDS011;61348;53.392;-6.248;2023-01-25T05:32:13;16.55;;;9.13;;
43706;SDS011;61348;53.392;-6.248;2023-01-25T05:34:41;12.50;;;7.88;;
43706;SDS011;61348;53.392;-6.248;2023-01-25T05:37:11;14.00;;;9.25;;
43706;SDS011;61348;53.392;-6.248;2023-01-25T05:39:40;13.77;;;7.40;;
43706;SDS011;61348;53.392;-6.248;2023-01-25T05:42:10;12.60;;;8.23;;
43706;SDS011;61348;53.392;-6.248;2023-01-25T05:44:39;16.25;;;7.95;;
43706;SDS011;61348;53.392;-6.248;2023-01-25T05:47:06;12.68;;;7.88;;
43706;SDS011;61348;53.392;-6.248;2023-01-25T05:49:35;17.25;;;8.55;;
43706;SDS011;61348;53.392;-6.248;2023-01-25T05:52:01;15.30;;;9.07;;
43706;SDS011;61348;53.392;-6.248;2023-01-25T05:54:28;11.57;;;7.70;;
43706;SDS011;61348;53.392;-6.248;2023-01-25T05:56:55;13.73;;;7.30;;
43706;SDS011;61348;53.392;-6.248;2023-01-25T05:59:22;13.13;;;6.75;;
43706;SDS011;61348;53.392;-6.248;2023-01-25T06:01:48;16.35;;;7.35;;
43706;SDS011;61348;53.392;-6.248;2023-01-25T06:04:15;15.45;;;8.07;;
43706;SDS011;61348;53.392;-6.248;2023-01-25T06:06:43;15.40;;;8.85;;
43706;SDS011;61348;53.392;-6.248;2023-01-25T06:09:11;15.10;;;7.00;;
43706;SDS011;61348;53.392;-6.248;2023-01-25T06:11:38;32.45;;;8.45;;
43706;SDS011;61348;53.392;-6.248;2023-01-25T06:14:05;13.98;;;8.35;;
43706;SDS011;61348;53.392;-6.248;2023-01-25T06:16:32;11.32;;;6.10;;
43706;SDS011;61348;53.392;-6.248;2023-01-25T06:18:58;13.35;;;6.15;;
43706;SDS011;61348;53.392;-6.248;2023-01-25T06:21:25;12.68;;;6.10;;
43706;SDS011;61348;53.392;-6.248;2023-01-25T06:23:52;12.68;;;5.68;;
43706;SDS011;61348;53.392;-6.248;2023-01-25T06:26:19;11.38;;;6.47;;
43706;SDS011;61348;53.392;-6.248;2023-01-25T06:28:46;11.13;;;5.75;;
43706;SDS011;61348;53.392;-6.248;2023-01-25T06:31:14;9.85;;;5.57;;
43706;SDS011;61348;53.392;-6.248;2023-01-25T06:33:42;11.15;;;5.03;;
43706;SDS011;61348;53.392;-6.248;2023-01-25T06:36:13;12.40;;;5.93;;
43706;SDS011;61348;53.392;-6.248;2023-01-25T06:38:41;10.10;;;5.25;;
43706;SDS011;61348;53.392;-6.248;2023-01-25T06:41:09;10.05;;;5.38;;
43706;SDS011;61348;53.392;-6.248;2023-01-25T06:43:37;10.35;;;5.50;;
43706;SDS011;61348;53.392;-6.248;2023-01-25T06:46:05;9.52;;;4.75;;
43706;SDS011;61348;53.392;-6.248;2023-01-25T06:48:34;7.43;;;5.05;;
43706;SDS011;61348;53.392;-6.248;2023-01-25T06:51:02;8.60;;;5.28;;
43706;SDS011;61348;53.392;-6.248;2023-01-25T06:53:32;8.05;;;5.03;;
43706;SDS011;61348;53.392;-6.248;2023-01-25T06:56:04;10.63;;;5.05;;
43706;SDS011;61348;53.392;-6.248;2023-01-25T06:58:37;8.82;;;5.30;;
43706;SDS011;61348;53.392;-6.248;2023-01-25T07:01:11;14.23;;;5.75;;
43706;SDS011;61348;53.392;-6.248;2023-01-25T07:03:47;9.02;;;5.68;;
43706;SDS011;61348;53.392;-6.248;2023-01-25T07:06:17;7.45;;;5.68;;
43706;SDS011;61348;53.392;-6.248;2023-01-25T07:08:45;9.90;;;5.45;;
43706;SDS011;61348;53.392;-6.248;2023-01-25T07:11:12;11.93;;;6.20;;
43706;SDS011;61348;53.392;-6.248;2023-01-25T07:13:40;7.35;;;4.85;;
43706;SDS011;61348;53.392;-6.248;2023-01-25T07:16:11;9.88;;;5.90;;
43706;SDS011;61348;53.392;-6.248;2023-01-25T07:18:39;16.33;;;6.50;;
43706;SDS011;61348;53.392;-6.248;2023-01-25T07:21:09;10.60;;;6.78;;
43706;SDS011;61348;53.392;-6.248;2023-01-25T07:23:38;8.50;;;5.13;;
43706;SDS011;61348;53.392;-6.248;2023-01-25T07:26:13;10.43;;;6.15;;
43706;SDS011;61348;53.392;-6.248;2023-01-25T07:28:58;9.88;;;5.60;;
43706;SDS011;61348;53.392;-6.248;2023-01-25T07:31:25;9.88;;;5.90;;
43706;SDS011;61348;53.392;-6.248;2023-01-25T07:33:53;14.55;;;7.15;;
43706;SDS011;61348;53.392;-6.248;2023-01-25T07:36:21;12.70;;;7.00;;
43706;SDS011;61348;53.392;-6.248;2023-01-25T07:38:51;11.27;;;6.13;;
43706;SDS011;61348;53.392;-6.248;2023-01-25T07:41:22;10.60;;;5.18;;
43706;SDS011;61348;53.392;-6.248;2023-01-25T07:43:50;7.88;;;5.25;;
43706;SDS011;61348;53.392;-6.248;2023-01-25T07:46:17;6.45;;;4.40;;
43706;SDS011;61348;53.392;-6.248;2023-01-25T07:48:48;7.22;;;4.68;;
43706;SDS011;61348;53.392;-6.248;2023-01-25T07:51:16;12.63;;;4.18;;
43706;SDS011;61348;53.392;-6.248;2023-01-25T07:54:02;7.38;;;4.47;;
43706;SDS011;61348;53.392;-6.248;2023-01-25T07:56:31;7.55;;;4.78;;
43706;SDS011;61348;53.392;-6.248;2023-01-25T07:59:00;7.28;;;3.95;;
43706;SDS011;61348;53.392;-6.248;2023-01-25T08:01:28;7.80;;;4.93;;
43706;SDS011;61348;53.392;-6.248;2023-01-25T08:04:00;6.28;;;3.97;;
43706;SDS011;61348;53.392;-6.248;2023-01-25T08:06:29;9.25;;;4.35;;
43706;SDS011;61348;53.392;-6.248;2023-01-25T08:09:06;8.27;;;4.53;;
43706;SDS011;61348;53.392;-6.248;2023-01-25T08:11:36;9.30;;;5.75;;
43706;SDS011;61348;53.392;-6.248;2023-01-25T08:14:03;11.93;;;4.47;;
43706;SDS011;61348;53.392;-6.248;2023-01-25T08:16:30;7.13;;;4.00;;
43706;SDS011;61348;53.392;-6.248;2023-01-25T08:18:58;6.30;;;4.00;;
43706;SDS011;61348;53.392;-6.248;2023-01-25T08:21:26;6.05;;;3.83;;
43706;SDS011;61348;53.392;-6.248;2023-01-25T08:23:59;6.18;;;4.43;;
43706;SDS011;61348;53.392;-6.248;2023-01-25T08:26:28;6.25;;;3.60;;
43706;SDS011;61348;53.392;-6.248;2023-01-25T08:28:55;5.20;;;3.47;;
43706;SDS011;61348;53.392;-6.248;2023-01-25T08:31:24;6.30;;;4.05;;
43706;SDS011;61348;53.392;-6.248;2023-01-25T08:33:55;8.30;;;4.63;;
43706;SDS011;61348;53.392;-6.248;2023-01-25T08:36:22;6.53;;;4.20;;
43706;SDS011;61348;53.392;-6.248;2023-01-25T08:38:53;6.60;;;4.32;;
43706;SDS011;61348;53.392;-6.248;2023-01-25T08:43:50;7.00;;;3.97;;
43706;SDS011;61348;53.392;-6.248;2023-01-25T08:46:19;7.72;;;4.00;;
43706;SDS011;61348;53.392;-6.248;2023-01-25T08:48:46;7.25;;;3.80;;
43706;SDS011;61348;53.392;-6.248;2023-01-25T08:51:14;8.95;;;4.00;;
43706;SDS011;61348;53.392;-6.248;2023-01-25T08:53:42;6.07;;;3.17;;
43706;SDS011;61348;53.392;-6.248;2023-01-25T08:56:09;6.72;;;3.83;;
43706;SDS011;61348;53.392;-6.248;2023-01-25T08:58:41;5.68;;;3.50;;
43706;SDS011;61348;53.392;-6.248;2023-01-25T09:03:42;6.35;;;4.15;;
43706;SDS011;61348;53.392;-6.248;2023-01-25T09:06:10;6.82;;;4.05;;
43706;SDS011;61348;53.392;-6.248;2023-01-25T09:08:37;6.03;;;3.42;;
43706;SDS011;61348;53.392;-6.248;2023-01-25T09:11:07;7.50;;;3.33;;
43706;SDS011;61348;53.392;-6.248;2023-01-25T09:16:12;5.97;;;3.88;;
43706;SDS011;61348;53.392;-6.248;2023-01-25T09:18:45;6.40;;;3.53;;
43706;SDS011;61348;53.392;-6.248;2023-01-25T09:21:16;5.20;;;3.60;;
43706;SDS011;61348;53.392;-6.248;2023-01-25T09:23:46;5.85;;;4.22;;
43706;SDS011;61348;53.392;-6.248;2023-01-25T09:26:23;7.68;;;3.97;;
43706;SDS011;61348;53.392;-6.248;2023-01-25T09:28:51;5.30;;;3.95;;
43706;SDS011;61348;53.392;-6.248;2023-01-25T09:31:19;4.38;;;3.30;;
43706;SDS011;61348;53.392;-6.248;2023-01-25T09:33:50;4.75;;;3.65;;
43706;SDS011;61348;53.392;-6.248;2023-01-25T09:36:18;6.85;;;4.15;;
43706;SDS011;61348;53.392;-6.248;2023-01-25T09:38:45;8.63;;;4.32;;
43706;SDS011;61348;53.392;-6.248;2023-01-25T09:52:57;6.60;;;3.45;;
43706;SDS011;61348;53.392;-6.248;2023-01-25T09:55:12;8.18;;;4.38;;
43706;SDS011;61348;53.392;-6.248;2023-01-25T09:57:42;9.52;;;4.60;;
43706;SDS011;61348;53.392;-6.248;2023-01-25T10:03:22;12.32;;;5.22;;
43706;SDS011;61348;53.392;-6.248;2023-01-25T10:05:53;8.88;;;4.57;;
43706;SDS011;61348;53.392;-6.248;2023-01-25T10:11:03;8.40;;;5.10;;
43706;SDS011;61348;53.392;-6.248;2023-01-25T10:13:40;11.73;;;4.90;;
43706;SDS011;61348;53.392;-6.248;2023-01-25T10:16:10;8.68;;;4.80;;
43706;SDS011;61348;53.392;-6.248;2023-01-25T10:19:00;7.97;;;5.05;;
43706;SDS011;61348;53.392;-6.248;2023-01-25T10:21:44;9.57;;;5.13;;
43706;SDS011;61348;53.392;-6.248;2023-01-25T10:26:51;8.70;;;4.93;;
43706;SDS011;61348;53.392;-6.248;2023-01-25T10:29:27;11.13;;;6.22;;
43706;SDS011;61348;53.392;-6.248;2023-01-25T10:32:19;12.13;;;6.10;;
43706;SDS011;61348;53.392;-6.248;2023-01-25T10:37:26;14.07;;;6.30;;
43706;SDS011;61348;53.392;-6.248;2023-01-25T10:42:26;12.70;;;7.05;;
43706;SDS011;61348;53.392;-6.248;2023-01-25T10:44:56;11.13;;;6.13;;
43706;SDS011;61348;53.392;-6.248;2023-01-25T10:47:27;11.50;;;6.90;;
43706;SDS011;61348;53.392;-6.248;2023-01-25T10:49:59;13.45;;;6.80;;
43706;SDS011;61348;53.392;-6.248;2023-01-25T10:52:27;13.85;;;6.60;;
43706;SDS011;61348;53.392;-6.248;2023-01-25T10:55:16;12.90;;;8.00;;
43706;SDS011;61348;53.392;-6.248;2023-01-25T10:57:52;16.27;;;8.05;;
43706;SDS011;61348;53.392;-6.248;2023-01-25T11:02:58;12.77;;;7.30;;
43706;SDS011;61348;53.392;-6.248;2023-01-25T11:08:45;19.17;;;7.72;;
43706;SDS011;61348;53.392;-6.248;2023-01-25T11:10:50;15.45;;;7.78;;
43706;SDS011;61348;53.392;-6.248;2023-01-25T11:13:19;12.55;;;8.23;;
43706;SDS011;61348;53.392;-6.248;2023-01-25T11:15:53;11.98;;;7.38;;
43706;SDS011;61348;53.392;-6.248;2023-01-25T11:18:53;13.65;;;7.72;;
43706;SDS011;61348;53.392;-6.248;2023-01-25T11:21:32;15.82;;;6.95;;
43706;SDS011;61348;53.392;-6.248;2023-01-25T11:24:00;11.27;;;7.40;;
43706;SDS011;61348;53.392;-6.248;2023-01-25T11:26:31;10.13;;;6.40;;
43706;SDS011;61348;53.392;-6.248;2023-01-25T11:29:06;9.95;;;6.28;;
43706;SDS011;61348;53.392;-6.248;2023-01-25T11:31:38;5.68;;;3.67;;
43706;SDS011;61348;53.392;-6.248;2023-01-25T11:34:08;1.92;;;0.80;;
43706;SDS011;61348;53.392;-6.248;2023-01-25T11:36:41;1.90;;;1.00;;
43706;SDS011;61348;53.392;-6.248;2023-01-25T11:42:25;1.45;;;1.17;;
43706;SDS011;61348;53.392;-6.248;2023-01-25T11:45:17;4.15;;;1.38;;
43706;SDS011;61348;53.392;-6.248;2023-01-25T12:05:01;6.60;;;1.25;;
43706;SDS011;61348;53.392;-6.248;2023-01-25T12:07:50;8.65;;;2.08;;
43706;SDS011;61348;53.392;-6.248;2023-01-25T12:13:23;18.15;;;4.93;;
43706;SDS011;61348;53.392;-6.248;2023-01-25T12:16:25;7.20;;;1.60;;
43706;SDS011;61348;53.392;-6.248;2023-01-25T12:33:12;12.38;;;1.50;;
43706;SDS011;61348;53.392;-6.248;2023-01-25T12:35:58;8.20;;;1.88;;
43706;SDS011;61348;53.392;-6.248;2023-01-25T12:41:40;14.38;;;3.80;;
43706;SDS011;61348;53.392;-6.248;2023-01-25T12:49:54;14.50;;;3.28;;
43706;SDS011;61348;53.392;-6.248;2023-01-25T12:52:32;11.02;;;2.90;;
43706;SDS011;61348;53.392;-6.248;2023-01-25T12:55:02;9.65;;;2.47;;
43706;SDS011;61348;53.392;-6.248;2023-01-25T12:57:34;13.70;;;3.13;;
43706;SDS011;61348;53.392;-6.248;2023-01-25T13:05:45;9.75;;;2.58;;
43706;SDS011;61348;53.392;-6.248;2023-01-25T13:11:40;29.67;;;4.32;;
43706;SDS011;61348;53.392;-6.248;2023-01-25T13:13:49;11.50;;;2.20;;
43706;SDS011;61348;53.392;-6.248;2023-01-25T13:16:23;9.45;;;2.80;;
43706;SDS011;61348;53.392;-6.248;2023-01-25T13:24:20;15.45;;;2.53;;
43706;SDS011;61348;53.392;-6.248;2023-01-25T13:32:00;9.05;;;2.10;;
43706;SDS011;61348;53.392;-6.248;2023-01-25T13:37:17;6.22;;;2.38;;
43706;SDS011;61348;53.392;-6.248;2023-01-25T13:39:50;7.22;;;1.88;;
43706;SDS011;61348;53.392;-6.248;2023-01-25T13:42:34;10.57;;;2.15;;
43706;SDS011;61348;53.392;-6.248;2023-01-25T13:47:34;19.23;;;4.60;;
43706;SDS011;61348;53.392;-6.248;2023-01-25T13:53:15;13.40;;;4.22;;
43706;SDS011;61348;53.392;-6.248;2023-01-25T13:55:49;6.72;;;2.60;;
43706;SDS011;61348;53.392;-6.248;2023-01-25T13:58:19;10.07;;;2.08;;
43706;SDS011;61348;53.392;-6.248;2023-01-25T14:00:56;8.85;;;2.28;;
43706;SDS011;61348;53.392;-6.248;2023-01-25T14:03:28;13.73;;;2.60;;
43706;SDS011;61348;53.392;-6.248;2023-01-25T14:05:57;16.27;;;4.18;;
43706;SDS011;61348;53.392;-6.248;2023-01-25T14:08:27;9.15;;;3.15;;
43706;SDS011;61348;53.392;-6.248;2023-01-25T14:10:55;12.05;;;2.15;;
43706;SDS011;61348;53.392;-6.248;2023-01-25T14:13:23;7.60;;;1.63;;
43706;SDS011;61348;53.392;-6.248;2023-01-25T14:16:08;12.02;;;2.47;;
43706;SDS011;61348;53.392;-6.248;2023-01-25T14:18:35;6.88;;;1.60;;
43706;SDS011;61348;53.392;-6.248;2023-01-25T14:23:35;10.50;;;1.70;;
43706;SDS011;61348;53.392;-6.248;2023-01-25T14:26:02;5.10;;;1.65;;
43706;SDS011;61348;53.392;-6.248;2023-01-25T14:28:29;11.60;;;2.80;;
43706;SDS011;61348;53.392;-6.248;2023-01-25T14:30:57;26.05;;;3.80;;
43706;SDS011;61348;53.392;-6.248;2023-01-25T14:36:02;13.10;;;4.15;;
43706;SDS011;61348;53.392;-6.248;2023-01-25T14:38:49;9.18;;;2.38;;
43706;SDS011;61348;53.392;-6.248;2023-01-25T14:43:48;7.05;;;2.55;;
43706;SDS011;61348;53.392;-6.248;2023-01-25T14:46:18;8.88;;;3.83;;
43706;SDS011;61348;53.392;-6.248;2023-01-25T14:49:32;8.05;;;1.92;;
43706;SDS011;61348;53.392;-6.248;2023-01-25T14:52:12;7.45;;;1.80;;
43706;SDS011;61348;53.392;-6.248;2023-01-25T14:54:50;8.90;;;2.20;;
43706;SDS011;61348;53.392;-6.248;2023-01-25T14:57:33;10.90;;;2.08;;
43706;SDS011;61348;53.392;-6.248;2023-01-25T15:00:16;8.80;;;1.35;;
43706;SDS011;61348;53.392;-6.248;2023-01-25T15:07:51;11.55;;;2.03;;
43706;SDS011;61348;53.392;-6.248;2023-01-25T15:10:21;9.15;;;3.00;;
43706;SDS011;61348;53.392;-6.248;2023-01-25T15:13:03;14.18;;;3.13;;
43706;SDS011;61348;53.392;-6.248;2023-01-25T15:23:46;10.30;;;2.15;;
43706;SDS011;61348;53.392;-6.248;2023-01-25T15:26:17;6.20;;;1.83;;
43706;SDS011;61348;53.392;-6.248;2023-01-25T15:28:44;11.65;;;1.83;;
43706;SDS011;61348;53.392;-6.248;2023-01-25T15:31:15;11.27;;;2.47;;
43706;SDS011;61348;53.392;-6.248;2023-01-25T15:36:10;13.80;;;2.30;;
43706;SDS011;61348;53.392;-6.248;2023-01-25T15:38:40;12.75;;;1.95;;
43706;SDS011;61348;53.392;-6.248;2023-01-25T15:41:07;13.68;;;2.47;;
43706;SDS011;61348;53.392;-6.248;2023-01-25T15:43:34;9.15;;;2.95;;
43706;SDS011;61348;53.392;-6.248;2023-01-25T15:46:01;12.05;;;2.00;;
43706;SDS011;61348;53.392;-6.248;2023-01-25T15:48:37;17.20;;;3.00;;
43706;SDS011;61348;53.392;-6.248;2023-01-25T15:51:08;11.60;;;2.70;;
43706;SDS011;61348;53.392;-6.248;2023-01-25T15:53:35;12.80;;;2.85;;
43706;SDS011;61348;53.392;-6.248;2023-01-25T15:56:05;12.93;;;3.28;;
43706;SDS011;61348;53.392;-6.248;2023-01-25T15:58:40;13.63;;;2.47;;
43706;SDS011;61348;53.392;-6.248;2023-01-25T16:01:08;14.20;;;2.75;;
43706;SDS011;61348;53.392;-6.248;2023-01-25T16:03:35;14.80;;;3.40;;
43706;SDS011;61348;53.392;-6.248;2023-01-25T16:06:06;10.70;;;2.63;;
43706;SDS011;61348;53.392;-6.248;2023-01-25T16:09:19;20.92;;;3.80;;
43706;SDS011;61348;53.392;-6.248;2023-01-25T16:11:49;28.50;;;7.63;;
43706;SDS011;61348;53.392;-6.248;2023-01-25T16:14:19;14.90;;;3.95;;
43706;SDS011;61348;53.392;-6.248;2023-01-25T16:16:47;22.73;;;7.43;;
43706;SDS011;61348;53.392;-6.248;2023-01-25T16:19:16;15.82;;;4.50;;
43706;SDS011;61348;53.392;-6.248;2023-01-25T16:21:45;20.63;;;4.07;;
43706;SDS011;61348;53.392;-6.248;2023-01-25T16:24:12;17.92;;;3.63;;
43706;SDS011;61348;53.392;-6.248;2023-01-25T16:26:43;16.05;;;3.92;;
43706;SDS011;61348;53.392;-6.248;2023-01-25T16:29:13;19.02;;;4.20;;
43706;SDS011;61348;53.392;-6.248;2023-01-25T16:31:40;17.73;;;3.75;;
43706;SDS011;61348;53.392;-6.248;2023-01-25T16:34:07;16.52;;;4.80;;
43706;SDS011;61348;53.392;-6.248;2023-01-25T16:36:34;11.80;;;3.55;;
43706;SDS011;61348;53.392;-6.248;2023-01-25T16:39:12;15.80;;;3.95;;
43706;SDS011;61348;53.392;-6.248;2023-01-25T16:41:41;24.70;;;3.72;;
43706;SDS011;61348;53.392;-6.248;2023-01-25T16:44:08;24.67;;;4.68;;
43706;SDS011;61348;53.392;-6.248;2023-01-25T16:46:35;23.30;;;6.05;;
43706;SDS011;61348;53.392;-6.248;2023-01-25T16:49:02;16.30;;;4.45;;
43706;SDS011;61348;53.392;-6.248;2023-01-25T16:51:32;20.90;;;5.15;;
43706;SDS011;61348;53.392;-6.248;2023-01-25T16:53:58;26.15;;;5.07;;
43706;SDS011;61348;53.392;-6.248;2023-01-25T16:56:26;20.10;;;5.57;;
43706;SDS011;61348;53.392;-6.248;2023-01-25T16:58:55;14.32;;;5.45;;
43706;SDS011;61348;53.392;-6.248;2023-01-25T17:01:23;20.83;;;5.43;;
43706;SDS011;61348;53.392;-6.248;2023-01-25T17:03:50;26.20;;;8.00;;
43706;SDS011;61348;53.392;-6.248;2023-01-25T17:06:21;20.95;;;5.90;;
43706;SDS011;61348;53.392;-6.248;2023-01-25T17:08:48;22.88;;;6.10;;
43706;SDS011;61348;53.392;-6.248;2023-01-25T17:11:16;17.77;;;6.22;;
43706;SDS011;61348;53.392;-6.248;2023-01-25T17:13:51;20.88;;;5.45;;